Time;durP1;ratioP1;P1;durP2;ratioP2;P2;SDS_P1;SDS_P2;PMS_P1;PMS_P2;Temp;Humidity;BMP_temperature;BMP_pressure;BME280_temperature;BME280_humidity;BME280_pressure;Samples;Min_cycle;Max_cycle;Signal;HPM_P1;HPM_P2
2023/06/19 00:01:20;;;;;;;9.93;5.43;;;;;;;-143.21;71.68;71756.91;5085001;28;20295;-79
2023/06/19 00:03:48;;;;;;;7.43;5.95;;;;;;;-143.21;71.54;71762.84;5076891;28;20209;-80
2023/06/19 00:06:17;;;;;;;8.38;5.53;;;;;;;-143.21;71.60;71766.81;5066304;28;20203;-80
2023/06/19 00:08:43;;;;;;;9.18;6.03;;;;;;;-143.21;71.87;71776.72;5062005;28;20213;-79
2023/06/19 00:11:10;;;;;;;6.28;5.35;;;;;;;-143.21;72.15;71778.72;5076132;28;20258;-79
2023/06/19 00:13:39;;;;;;;9.27;6.20;;;;;;;-143.21;72.20;71784.66;5069817;28;20225;-79
2023/06/19 00:16:06;;;;;;;8.77;5.60;;;;;;;-143.21;72.53;71788.63;5059791;28;20201;-79
2023/06/19 00:18:39;;;;;;;10.13;6.03;;;;;;;-143.21;72.64;71784.66;5060121;28;20197;-79
2023/06/19 00:21:07;;;;;;;9.77;5.53;;;;;;;-143.21;72.62;71784.66;5081307;28;20240;-79
2023/06/19 00:23:44;;;;;;;8.88;5.70;;;;;;;-143.21;72.31;71780.69;5087772;28;20196;-79
2023/06/19 00:26:14;;;;;;;5.75;5.15;;;;;;;-143.21;72.55;71784.66;5085014;28;20201;-80
2023/06/19 00:28:41;;;;;;;6.82;5.25;;;;;;;-143.21;72.78;71790.59;5088142;28;20292;-80
2023/06/19 00:31:08;;;;;;;8.65;5.10;;;;;;;-143.21;72.94;71798.53;5091603;28;20193;-80
2023/06/19 00:33:35;;;;;;;9.63;5.63;;;;;;;-143.21;73.02;71796.56;5091577;28;20221;-80
2023/06/19 00:36:02;;;;;;;12.57;5.70;;;;;;;-143.21;72.68;71792.59;5088625;28;20208;-80
2023/06/19 00:38:29;;;;;;;6.10;5.05;;;;;;;-143.21;72.62;71784.66;5091651;28;20216;-79
2023/06/19 00:40:57;;;;;;;10.10;5.53;;;;;;;-143.21;72.99;71796.56;5091949;28;20211;-79
2023/06/19 00:43:24;;;;;;;6.57;5.43;;;;;;;-143.21;72.80;71802.50;5091693;28;20201;-79
2023/06/19 00:45:51;;;;;;;7.90;5.30;;;;;;;-143.21;73.18;71798.53;5090863;28;20208;-78
2023/06/19 00:48:18;;;;;;;6.35;5.22;;;;;;;-143.21;72.72;71796.56;5090758;28;20208;-79
2023/06/19 00:50:45;;;;;;;7.13;4.95;;;;;;;-143.21;73.17;71808.44;5090511;28;20220;-79
2023/06/19 00:53:14;;;;;;;7.15;5.25;;;;;;;-143.21;73.56;71804.47;5089678;28;20208;-80
2023/06/19 00:55:43;;;;;;;7.57;5.20;;;;;;;-143.21;73.44;71804.47;5090501;28;20224;-80
2023/06/19 00:58:11;;;;;;;8.48;5.60;;;;;;;-143.21;73.38;71802.50;5091195;28;20197;-80
2023/06/19 01:00:38;;;;;;;8.50;5.47;;;;;;;-143.21;73.60;71800.53;5090884;28;20292;-79
2023/06/19 01:03:05;;;;;;;6.93;5.63;;;;;;;-143.21;73.63;71800.53;5091234;28;20200;-78
2023/06/19 01:05:33;;;;;;;7.38;5.45;;;;;;;-143.21;73.80;71802.50;5090963;28;20208;-78
2023/06/19 01:08:04;;;;;;;7.13;5.30;;;;;;;-143.21;73.51;71798.53;5090031;28;20931;-78
2023/06/19 01:10:38;;;;;;;8.93;5.53;;;;;;;-143.21;73.48;71812.41;5103406;28;20271;-78
2023/06/19 01:13:11;;;;;;;7.72;5.70;;;;;;;-143.21;73.52;71810.44;5107839;28;20215;-78
2023/06/19 01:15:41;;;;;;;16.38;5.70;;;;;;;-143.21;73.70;71816.38;5108006;28;20228;-80
2023/06/19 01:18:12;;;;;;;10.27;5.57;;;;;;;-143.21;73.66;71816.38;5110556;28;20291;-79
2023/06/19 01:20:39;;;;;;;6.00;5.40;;;;;;;-143.21;73.82;71834.22;5107582;28;20267;-79
2023/06/19 01:23:11;;;;;;;6.90;5.80;;;;;;;-143.21;74.16;71836.22;5110670;28;20211;-79
2023/06/19 01:25:39;;;;;;;7.33;5.80;;;;;;;-143.21;74.25;71844.16;5108008;28;20270;-79
2023/06/19 01:28:09;;;;;;;7.07;5.67;;;;;;;-143.21;74.45;71848.09;5111066;28;20208;-79
2023/06/19 01:30:38;;;;;;;8.47;6.03;;;;;;;-143.21;74.41;71846.13;5107753;28;20208;-79
2023/06/19 01:33:19;;;;;;;7.07;5.43;;;;;;;-143.21;74.99;71844.16;5110922;28;20200;-80
2023/06/19 01:35:48;;;;;;;9.37;5.63;;;;;;;-143.21;74.79;71852.06;5108620;28;20220;-80
2023/06/19 01:38:21;;;;;;;9.23;5.67;;;;;;;-143.21;75.02;71858.03;5110347;28;20207;-80
2023/06/19 01:40:50;;;;;;;10.87;5.93;;;;;;;-143.21;75.43;71869.91;5108429;28;20693;-79
2023/06/19 01:43:18;;;;;;;7.90;5.57;;;;;;;-143.21;76.09;71869.91;5110109;28;20207;-79
2023/06/19 01:45:45;;;;;;;9.23;5.60;;;;;;;-143.21;76.64;71867.94;5110945;28;20239;-79
2023/06/19 01:48:15;;;;;;;8.88;6.03;;;;;;;-143.21;77.25;71865.97;5110499;28;20208;-79
2023/06/19 01:50:46;;;;;;;6.05;5.32;;;;;;;-143.21;77.66;71875.88;5110511;28;20200;-79
2023/06/19 01:53:13;;;;;;;11.55;6.15;;;;;;;-143.21;77.70;71875.88;5111297;28;20207;-82
2023/06/19 01:55:42;;;;;;;11.23;5.77;;;;;;;-143.21;78.24;71881.81;5111419;28;20227;-82
2023/06/19 01:58:08;;;;;;;8.82;6.40;;;;;;;-143.21;78.03;71881.81;5111067;28;20204;-82
2023/06/19 02:00:37;;;;;;;11.77;6.43;;;;;;;-143.21;78.13;71889.75;5111103;28;20666;-81
2023/06/19 02:03:04;;;;;;;8.80;5.97;;;;;;;-143.21;78.26;71895.69;5108014;28;20288;-81
2023/06/19 02:05:31;;;;;;;8.43;6.40;;;;;;;-143.21;78.47;71899.66;5110903;28;20200;-80
2023/06/19 02:07:59;;;;;;;8.90;6.37;;;;;;;-143.21;77.75;71907.59;5109574;28;20195;-81
2023/06/19 02:10:26;;;;;;;9.43;5.90;;;;;;;-143.21;77.85;71905.63;5109739;28;20215;-81
2023/06/19 02:12:54;;;;;;;8.20;5.63;;;;;;;-143.21;77.01;71907.59;5110316;28;20211;-80
2023/06/19 02:15:23;;;;;;;9.43;5.53;;;;;;;-143.21;77.74;71909.56;5110656;28;20231;-81
2023/06/19 02:17:54;;;;;;;11.47;6.30;;;;;;;-143.21;77.71;71909.56;5110925;28;20208;-81
2023/06/19 02:20:21;;;;;;;10.37;5.97;;;;;;;-143.21;77.14;71933.38;5110557;28;20259;-81
2023/06/19 02:22:51;;;;;;;8.63;5.87;;;;;;;-143.21;77.55;71951.22;5110340;28;20200;-81
2023/06/19 02:25:18;;;;;;;9.30;6.43;;;;;;;-143.21;77.53;71965.09;5110611;28;20662;-82
2023/06/19 02:27:54;;;;;;;11.70;6.47;;;;;;;-143.21;77.90;71963.13;5110361;28;20618;-80
2023/06/19 02:30:28;;;;;;;8.10;6.00;;;;;;;-143.21;77.58;71955.19;5109883;28;20265;-81
2023/06/19 02:32:55;;;;;;;8.90;6.33;;;;;;;-143.21;76.54;71935.34;5110190;28;20204;-81
2023/06/19 02:35:22;;;;;;;7.27;6.07;;;;;;;-143.21;76.46;71937.34;5110725;28;20242;-82
2023/06/19 02:37:49;;;;;;;9.80;6.70;;;;;;;-143.21;76.48;71941.31;5110346;28;20203;-82
2023/06/19 02:40:15;;;;;;;9.13;6.47;;;;;;;-143.21;76.29;71943.28;5110181;28;20200;-82
2023/06/19 02:42:44;;;;;;;8.63;6.60;;;;;;;-143.21;76.38;71951.22;5110027;28;20196;-80
2023/06/19 02:45:16;;;;;;;11.80;6.47;;;;;;;-143.21;76.72;71957.16;5108824;28;20288;-81
2023/06/19 02:47:45;;;;;;;9.67;6.70;;;;;;;-143.21;76.85;71953.19;5108166;28;20203;-81
2023/06/19 02:50:12;;;;;;;9.43;6.63;;;;;;;-143.21;76.72;71955.19;5110074;28;20203;-80
2023/06/19 02:52:39;;;;;;;10.33;6.53;;;;;;;-143.21;76.88;71963.13;5109536;28;20212;-80
2023/06/19 02:55:08;;;;;;;9.43;6.23;;;;;;;-143.21;76.50;71955.19;5109849;28;20228;-81
2023/06/19 02:57:35;;;;;;;8.33;6.60;;;;;;;-143.21;76.86;71959.16;5107078;28;20223;-81
2023/06/19 03:00:03;;;;;;;10.30;6.50;;;;;;;-143.21;76.96;71965.09;5110535;28;20207;-81
2023/06/19 03:02:30;;;;;;;9.63;6.80;;;;;;;-143.21;76.88;71963.13;5109636;28;20210;-81
2023/06/19 03:04:58;;;;;;;11.03;6.43;;;;;;;-143.21;77.03;71965.09;5109581;28;20677;-79
2023/06/19 03:07:28;;;;;;;10.03;6.87;;;;;;;-143.21;77.08;71971.06;5109526;28;20217;-79
2023/06/19 03:09:55;;;;;;;10.43;6.57;;;;;;;-143.21;77.17;71977.00;5109339;28;20215;-79
2023/06/19 03:12:22;;;;;;;11.47;6.57;;;;;;;-143.21;77.11;71980.97;5109218;28;20207;-80
2023/06/19 03:14:55;;;;;;;7.97;6.30;;;;;;;-143.21;77.52;71984.94;5109166;28;20226;-79
2023/06/19 03:17:22;;;;;;;8.07;6.83;;;;;;;-143.21;77.66;71990.88;5109441;28;20698;-79
2023/06/19 03:19:49;;;;;;;10.33;6.97;;;;;;;-143.21;77.27;71980.97;5109358;28;20254;-79
2023/06/19 03:22:18;;;;;;;9.93;7.10;;;;;;;-143.21;77.24;71982.94;5108636;28;20280;-79
2023/06/19 03:24:45;;;;;;;8.67;6.40;;;;;;;-143.21;77.16;71986.91;5108043;28;20206;-79
2023/06/19 03:27:12;;;;;;;15.00;6.80;;;;;;;-143.21;77.34;71982.94;5108112;28;20666;-79
2023/06/19 03:29:39;;;;;;;10.23;6.93;;;;;;;-143.21;77.48;71980.97;5109083;28;20671;-79
2023/06/19 03:32:07;;;;;;;11.93;7.00;;;;;;;-143.21;77.31;71982.94;5109555;28;20203;-79
2023/06/19 03:34:33;;;;;;;10.70;7.13;;;;;;;-143.21;77.45;71984.94;5110014;28;20307;-79
2023/06/19 03:37:00;;;;;;;11.60;7.03;;;;;;;-143.21;78.02;71980.97;5108947;28;20215;-80
2023/06/19 03:39:28;;;;;;;10.07;7.10;;;;;;;-143.21;79.24;71984.94;5109051;28;20211;-79
2023/06/19 03:41:55;;;;;;;11.07;7.30;;;;;;;-143.21;80.31;71980.97;5107798;28;20268;-80
2023/06/19 03:44:26;;;;;;;15.20;8.03;;;;;;;-143.21;80.64;71977.00;5109392;28;20208;-80
2023/06/19 03:46:53;;;;;;;16.17;8.90;;;;;;;-143.21;80.71;71982.94;5108792;28;20204;-80
2023/06/19 03:49:23;;;;;;;17.83;8.70;;;;;;;-143.21;80.95;71988.91;5108503;28;20666;-78
2023/06/19 03:51:52;;;;;;;18.57;8.17;;;;;;;-143.21;81.07;72000.78;5107994;28;20231;-80
2023/06/19 03:54:19;;;;;;;13.70;7.90;;;;;;;-143.21;80.64;71990.88;5107823;28;20185;-79
2023/06/19 03:56:47;;;;;;;19.87;8.60;;;;;;;-143.21;80.03;71988.91;5107979;28;20204;-79
2023/06/19 03:59:14;;;;;;;14.20;7.93;;;;;;;-143.21;80.79;71992.88;5107881;28;20204;-80
2023/06/19 04:01:41;;;;;;;16.73;8.97;;;;;;;-143.21;80.87;71992.88;5107810;28;20701;-79
2023/06/19 04:04:08;;;;;;;15.83;8.40;;;;;;;-143.21;81.33;71990.88;5110288;28;20279;-79
2023/06/19 04:06:35;;;;;;;15.67;7.67;;;;;;;-143.21;80.60;71986.91;5109287;28;20617;-79
2023/06/19 04:09:02;;;;;;;14.40;7.53;;;;;;;-143.21;79.16;71978.97;5108989;28;20196;-80
2023/06/19 04:11:29;;;;;;;12.97;7.47;;;;;;;-143.21;78.40;71978.97;5112062;28;20219;-79
2023/06/19 04:13:57;;;;;;;9.23;7.20;;;;;;;-143.21;77.63;71982.94;5112089;28;20232;-79
2023/06/19 04:16:24;;;;;;;9.20;6.97;;;;;;;-143.21;77.97;71994.84;5111510;28;20231;-80
2023/06/19 04:18:51;;;;;;;9.43;6.67;;;;;;;-143.21;78.29;71994.84;5112392;28;20295;-82
2023/06/19 04:21:18;;;;;;;8.70;6.77;;;;;;;-143.21;77.86;71980.97;5111616;28;20283;-79
2023/06/19 04:24:08;;;;;;;8.27;6.60;;;;;;;-143.21;77.31;71963.13;5111642;28;20211;-78
2023/06/19 04:26:36;;;;;;;10.30;6.53;;;;;;;-143.21;76.73;71955.19;5108236;28;20565;-79
2023/06/19 04:29:19;;;;;;;11.37;6.33;;;;;;;-143.21;76.33;71949.25;5112005;28;20200;-79
2023/06/19 04:31:56;;;;;;;10.43;6.53;;;;;;;-143.21;75.41;71939.31;5110390;28;20218;-81
2023/06/19 04:34:23;;;;;;;9.27;6.33;;;;;;;-143.21;75.24;71935.34;5111555;28;20211;-79
2023/06/19 04:36:50;;;;;;;8.40;6.10;;;;;;;-143.21;74.28;71923.47;5111068;28;20581;-79
2023/06/19 04:39:31;;;;;;;7.20;6.00;;;;;;;-143.21;74.65;71937.34;5111349;28;20312;-79
2023/06/19 04:42:01;;;;;;;10.10;6.30;;;;;;;-143.21;75.22;71943.28;5110854;28;20215;-79
2023/06/19 04:44:33;;;;;;;7.10;5.70;;;;;;;-143.21;75.24;71941.31;5110779;28;20222;-79
2023/06/19 04:47:01;;;;;;;10.37;5.80;;;;;;;-143.21;74.59;71935.34;5110501;28;20192;-78
2023/06/19 04:49:30;;;;;;;7.50;5.60;;;;;;;-143.21;74.20;71933.38;5110732;28;20212;-78
2023/06/19 04:51:57;;;;;;;6.17;5.37;;;;;;;-143.21;73.48;71925.44;5110928;28;20200;-78
2023/06/19 04:54:24;;;;;;;7.73;5.00;;;;;;;-143.21;73.14;71929.41;5110770;28;20208;-78
2023/06/19 04:56:50;;;;;;;8.00;5.30;;;;;;;-143.21;73.57;71923.47;5111208;28;20234;-78
2023/06/19 04:59:18;;;;;;;9.43;5.43;;;;;;;-143.21;73.33;71919.50;5110885;28;20207;-79
2023/06/19 05:01:47;;;;;;;10.03;6.03;;;;;;;-143.21;73.53;71917.50;5107040;28;20291;-79
2023/06/19 05:04:13;;;;;;;8.63;5.80;;;;;;;-143.21;72.96;71901.66;5110775;28;20196;-77
2023/06/19 05:06:40;;;;;;;6.97;5.60;;;;;;;-143.21;72.36;71891.72;5107811;28;20233;-76
2023/06/19 05:09:07;;;;;;;8.53;4.93;;;;;;;-143.21;72.17;71889.75;5110909;28;20288;-77
2023/06/19 05:11:34;;;;;;;11.70;5.70;;;;;;;-143.21;72.04;71879.84;5107334;28;20697;-77
2023/06/19 05:14:01;;;;;;;7.80;5.22;;;;;;;-143.21;72.06;71875.88;5106845;28;20640;-77
2023/06/19 05:16:28;;;;;;;13.32;5.78;;;;;;;-143.21;72.40;71875.88;5109485;28;20343;-77
2023/06/19 05:18:56;;;;;;;9.82;6.10;;;;;;;-143.21;72.12;71873.88;5110515;28;20229;-78
2023/06/19 05:21:23;;;;;;;9.65;5.45;;;;;;;-143.21;71.98;71867.94;5109569;28;20827;-77
2023/06/19 05:23:50;;;;;;;7.07;5.63;;;;;;;-143.21;71.94;71869.91;5110470;28;20682;-76
2023/06/19 05:26:17;;;;;;;8.00;5.95;;;;;;;-143.21;72.01;71867.94;5109882;28;20654;-76
2023/06/19 05:28:44;;;;;;;8.95;5.38;;;;;;;-143.21;72.21;71875.88;5110662;28;20275;-78
2023/06/19 05:31:13;;;;;;;6.70;5.40;;;;;;;-143.21;71.79;71869.91;5109013;28;21022;-78
2023/06/19 05:33:41;;;;;;;7.05;5.45;;;;;;;-143.21;71.97;71867.94;5108820;28;20200;-78
2023/06/19 05:36:09;;;;;;;8.05;5.40;;;;;;;-143.21;72.18;71871.91;5110257;28;20588;-80
2023/06/19 05:38:36;;;;;;;9.70;6.22;;;;;;;-143.21;72.28;71862.00;5107850;28;20199;-81
2023/06/19 05:41:03;;;;;;;8.25;6.25;;;;;;;-143.21;72.44;71865.97;5109029;28;20200;-80
2023/06/19 05:43:30;;;;;;;11.45;6.30;;;;;;;-143.21;72.73;71852.06;5110500;28;20215;-80
2023/06/19 05:45:59;;;;;;;9.07;6.18;;;;;;;-143.21;73.38;71850.09;5111110;28;20200;-79
2023/06/19 05:48:26;;;;;;;9.43;6.18;;;;;;;-143.21;72.60;71836.22;5110370;28;20272;-79
2023/06/19 05:50:53;;;;;;;9.40;5.97;;;;;;;-143.21;72.33;71842.16;5110751;28;20479;-80
2023/06/19 05:53:21;;;;;;;6.75;5.55;;;;;;;-143.21;72.47;71844.16;5109882;28;20204;-80
2023/06/19 05:55:48;;;;;;;8.77;5.70;;;;;;;-143.21;73.10;71856.03;5111142;28;20652;-79
2023/06/19 05:58:15;;;;;;;7.00;5.40;;;;;;;-143.21;72.93;71846.13;5110068;28;20188;-80
2023/06/19 06:00:42;;;;;;;10.20;5.90;;;;;;;-143.21;72.91;71850.09;5109627;28;20192;-80
2023/06/19 06:03:08;;;;;;;7.22;5.72;;;;;;;-143.21;73.18;71842.16;5108587;28;20200;-80
2023/06/19 06:05:36;;;;;;;6.93;5.97;;;;;;;-143.21;72.60;71830.25;5110605;28;20203;-80
2023/06/19 06:08:03;;;;;;;22.42;5.53;;;;;;;-143.21;70.94;71824.31;5107659;28;20244;-78
2023/06/19 06:10:31;;;;;;;11.48;5.68;;;;;;;-143.21;70.89;71816.38;5110674;28;20207;-80
2023/06/19 06:12:58;;;;;;;6.40;5.55;;;;;;;-143.21;71.10;71814.41;5110941;28;20204;-79
2023/06/19 06:15:25;;;;;;;10.00;5.32;;;;;;;-143.21;71.18;71814.41;5110225;28;20899;-79
2023/06/19 06:17:51;;;;;;;6.10;5.40;;;;;;;-143.21;69.91;71798.53;5110947;28;20196;-79
2023/06/19 06:20:18;;;;;;;6.80;5.53;;;;;;;-143.21;69.97;71796.56;5110336;28;20231;-80
2023/06/19 06:22:49;;;;;;;8.93;5.18;;;;;;;-143.21;69.63;71790.59;5108771;28;20206;-79
2023/06/19 06:25:16;;;;;;;6.63;5.55;;;;;;;-143.21;69.76;71782.69;5107785;28;20206;-79
2023/06/19 06:27:44;;;;;;;9.18;5.18;;;;;;;-143.21;69.66;71770.78;5105157;28;20200;-79
2023/06/19 06:30:13;;;;;;;8.65;5.50;;;;;;;-143.21;69.40;71768.78;5105360;28;20192;-79
2023/06/19 06:32:40;;;;;;;7.07;5.70;;;;;;;-143.21;69.42;71756.91;5106910;28;20570;-80
2023/06/19 06:35:08;;;;;;;11.35;6.15;;;;;;;-143.21;69.19;71754.91;5109927;28;20192;-80
2023/06/19 06:37:34;;;;;;;14.07;6.60;;;;;;;-143.21;68.82;71754.91;5106920;28;20196;-80
2023/06/19 06:40:05;;;;;;;8.18;6.70;;;;;;;-143.21;67.53;71739.06;5107325;28;20196;-80
2023/06/19 06:42:31;;;;;;;9.35;6.28;;;;;;;-143.21;68.41;71741.03;5110205;28;20374;-80
2023/06/19 06:45:00;;;;;;;9.88;6.15;;;;;;;-143.21;68.89;71739.06;5110471;28;20206;-80
2023/06/19 06:47:27;;;;;;;12.57;5.68;;;;;;;-143.21;68.87;71733.09;5110095;28;20200;-85
2023/06/19 06:49:53;;;;;;;6.85;5.07;;;;;;;-143.21;68.08;71721.22;5110406;28;20207;-85
2023/06/19 06:52:20;;;;;;;6.78;5.20;;;;;;;-143.21;67.95;71715.25;5109882;28;20196;-83
2023/06/19 06:54:47;;;;;;;8.05;5.00;;;;;;;-143.21;68.66;71703.34;5110040;28;20200;-83
2023/06/19 06:57:14;;;;;;;8.45;5.55;;;;;;;-143.21;67.88;71697.41;5108188;28;20231;-83
2023/06/19 07:00:00;;;;;;;11.60;5.43;;;;;;;-143.21;67.53;71685.50;5107834;28;20204;-84
2023/06/19 07:02:30;;;;;;;8.35;5.40;;;;;;;-143.21;66.58;71685.50;5107948;28;20201;-84
2023/06/19 07:04:57;;;;;;;9.82;5.10;;;;;;;-143.21;65.88;71675.59;5109185;28;20230;-83
2023/06/19 07:07:24;;;;;;;8.40;5.60;;;;;;;-143.21;65.24;71673.63;5110032;28;20238;-85
2023/06/19 07:09:51;;;;;;;8.32;5.18;;;;;;;-143.21;65.89;71655.78;5109373;28;20264;-85
2023/06/19 07:12:18;;;;;;;6.15;5.07;;;;;;;-143.21;65.84;71653.78;5110630;28;20204;-86
2023/06/19 07:14:45;;;;;;;6.95;5.18;;;;;;;-143.21;65.75;71663.72;5106527;28;20203;-85
2023/06/19 07:17:12;;;;;;;7.47;5.20;;;;;;;-143.21;63.98;71659.75;5106528;28;20220;-85
2023/06/19 07:19:40;;;;;;;10.48;5.03;;;;;;;-143.21;64.77;71659.75;5108057;28;20236;-85
2023/06/19 07:22:07;;;;;;;6.53;5.10;;;;;;;-143.21;64.75;71647.84;5108704;28;20207;-85
2023/06/19 07:24:34;;;;;;;9.88;5.00;;;;;;;-143.21;64.57;71645.88;5105877;28;20208;-84
2023/06/19 07:27:01;;;;;;;7.95;5.43;;;;;;;-143.21;64.55;71641.91;5105966;28;20932;-84
2023/06/19 07:29:27;;;;;;;8.13;5.30;;;;;;;-143.21;64.25;71637.94;5108912;28;20200;-85
2023/06/19 07:31:55;;;;;;;6.50;4.93;;;;;;;-143.21;63.43;71635.94;5108857;28;20356;-85
2023/06/19 07:34:22;;;;;;;10.35;4.85;;;;;;;-143.21;62.97;71631.97;5108672;28;20196;-86
2023/06/19 07:36:50;;;;;;;6.55;4.55;;;;;;;-143.21;61.82;71630.00;5106731;28;20212;-82
2023/06/19 07:39:17;;;;;;;7.00;5.53;;;;;;;-143.21;63.04;71624.06;5111971;28;20207;-84
2023/06/19 07:41:45;;;;;;;14.48;5.18;;;;;;;-143.21;62.54;71608.19;5113053;28;20207;-85
2023/06/19 07:44:12;;;;;;;7.53;5.70;;;;;;;-143.21;62.62;71604.22;5112811;28;20278;-85
2023/06/19 07:46:39;;;;;;;10.60;4.95;;;;;;;-143.21;62.10;71592.31;5112598;28;21021;-84
2023/06/19 07:49:06;;;;;;;9.48;5.13;;;;;;;-143.21;63.78;71576.47;5112956;28;20215;-83
2023/06/19 07:51:35;;;;;;;6.38;5.20;;;;;;;-143.21;62.83;71582.41;5113497;28;20200;-83
2023/06/19 07:54:04;;;;;;;6.75;4.72;;;;;;;-143.21;60.38;71572.50;5113658;28;20200;-84
2023/06/19 07:56:32;;;;;;;4.90;4.40;;;;;;;-143.21;59.92;71572.50;5111809;28;20698;-81
2023/06/19 07:58:58;;;;;;;6.90;4.70;;;;;;;-143.21;60.25;71556.63;5111544;28;20199;-82
2023/06/19 08:01:25;;;;;;;7.28;4.63;;;;;;;-143.21;58.12;71564.56;5110635;28;20211;-80
2023/06/19 08:03:53;;;;;;;8.82;4.68;;;;;;;-143.21;57.45;71564.56;5112536;28;20200;-81
2023/06/19 08:06:20;;;;;;;6.03;4.75;;;;;;;-143.21;59.14;71562.59;5114127;28;20227;-82
2023/06/19 08:08:47;;;;;;;5.53;4.75;;;;;;;-143.21;60.31;71544.75;5113448;28;20204;-81
2023/06/19 08:11:16;;;;;;;6.88;5.47;;;;;;;-143.21;59.99;71534.81;5113190;28;20766;-83
2023/06/19 08:13:47;;;;;;;10.50;4.75;;;;;;;-143.21;60.07;71534.81;5113024;28;20200;-83
2023/06/19 08:16:15;;;;;;;8.30;4.63;;;;;;;-143.21;59.61;71526.91;5110528;28;20269;-80
2023/06/19 08:18:43;;;;;;;6.32;4.68;;;;;;;-143.21;57.29;71516.97;5112046;28;20286;-81
2023/06/19 08:21:21;;;;;;;5.40;4.72;;;;;;;-143.21;56.83;71518.97;5111108;28;20597;-83
2023/06/19 08:23:56;;;;;;;5.75;5.00;;;;;;;-143.21;55.49;71499.13;5111366;28;20265;-79
2023/06/19 08:26:29;;;;;;;5.72;4.50;;;;;;;-143.21;56.63;71505.09;5111007;28;20287;-78
2023/06/19 08:29:02;;;;;;;8.23;5.82;;;;;;;-143.21;56.79;71497.16;5109401;28;20200;-78
2023/06/19 08:31:29;;;;;;;5.75;4.75;;;;;;;-143.21;56.78;71505.09;5108571;28;20238;-78
2023/06/19 08:33:55;;;;;;;13.80;5.25;;;;;;;-143.21;57.42;71501.13;5110057;28;20211;-79
2023/06/19 08:36:22;;;;;;;5.90;5.03;;;;;;;-143.21;56.81;71483.28;5110987;28;20252;-80
2023/06/19 08:38:50;;;;;;;6.90;5.28;;;;;;;-143.21;56.92;71483.28;5111357;28;20305;-80
2023/06/19 08:41:19;;;;;;;5.10;4.43;;;;;;;-143.21;57.48;71459.47;5111099;28;20659;-78
2023/06/19 08:43:47;;;;;;;8.55;4.65;;;;;;;-143.21;56.42;71453.53;5110770;28;20269;-80
2023/06/19 08:46:17;;;;;;;7.20;4.82;;;;;;;-143.21;54.87;71459.47;5110795;28;20196;-81
2023/06/19 08:48:45;;;;;;;4.82;4.30;;;;;;;-143.21;56.63;71455.53;5110723;28;20204;-81
2023/06/19 08:51:13;;;;;;;5.07;4.57;;;;;;;-143.21;55.60;71441.63;5110575;28;20204;-81
2023/06/19 08:53:46;;;;;;;8.93;4.40;;;;;;;-143.21;55.08;71439.66;5110654;28;20325;-80
2023/06/19 08:56:13;;;;;;;8.25;5.10;;;;;;;-143.21;55.74;71429.75;5110838;28;20196;-82
2023/06/19 08:58:40;;;;;;;10.80;5.47;;;;;;;-143.21;55.64;71421.81;5111538;28;20204;-81
2023/06/19 09:01:08;;;;;;;6.80;4.75;;;;;;;-143.21;54.92;71409.91;5111008;28;20196;-80
2023/06/19 09:03:35;;;;;;;7.10;4.90;;;;;;;-143.21;54.80;71402.00;5110634;28;20204;-78
2023/06/19 09:06:04;;;;;;;6.30;4.60;;;;;;;-143.21;53.38;71394.06;5106428;28;20657;-78
2023/06/19 09:08:31;;;;;;;5.22;4.50;;;;;;;-143.21;51.69;71386.13;5108766;28;20207;-79
2023/06/19 09:11:28;;;;;;;4.53;4.10;;;;;;;-143.21;52.44;71384.16;5107228;28;20212;-79
2023/06/19 09:13:58;;;;;;;4.75;4.35;;;;;;;-143.21;51.24;71372.25;5110389;28;20253;-80
2023/06/19 09:16:38;;;;;;;8.95;4.35;;;;;;;-143.21;52.42;71366.31;5108947;28;20230;-79
2023/06/19 09:19:05;;;;;;;6.97;4.50;;;;;;;-143.21;52.67;71346.47;5108122;28;20606;-80
2023/06/19 09:21:36;;;;;;;6.57;4.38;;;;;;;-143.21;52.41;71336.56;5111159;28;20202;-79
2023/06/19 09:24:07;;;;;;;7.13;4.50;;;;;;;-143.21;51.55;71332.59;5107508;28;20204;-79
2023/06/19 09:26:34;;;;;;;4.65;4.10;;;;;;;-143.21;49.94;71326.66;5107271;28;20356;-79
2023/06/19 09:29:11;;;;;;;4.78;4.28;;;;;;;-143.21;50.98;71324.66;5106564;28;20258;-79
2023/06/19 09:31:41;;;;;;;7.95;4.13;;;;;;;-143.21;51.31;71314.75;5108131;28;20215;-79
2023/06/19 09:34:08;;;;;;;7.18;4.25;;;;;;;-143.21;51.46;71302.84;5109206;28;20655;-79
2023/06/19 09:36:36;;;;;;;8.13;4.75;;;;;;;-143.21;51.67;71290.97;5106449;28;20220;-79
2023/06/19 09:39:03;;;;;;;6.82;5.00;;;;;;;-143.21;51.17;71281.06;5106664;28;20211;-79
2023/06/19 09:41:31;;;;;;;8.02;4.65;;;;;;;-143.21;50.84;71290.97;5108195;28;20246;-79
2023/06/19 09:43:59;;;;;;;10.70;4.25;;;;;;;-143.21;51.08;71288.97;5105929;28;20203;-79
2023/06/19 09:46:32;;;;;;;5.40;4.47;;;;;;;-143.21;50.52;71288.97;5106537;28;20200;-79
2023/06/19 09:49:03;;;;;;;7.18;4.38;;;;;;;-143.21;50.75;71271.13;5109390;28;20295;-79
2023/06/19 09:51:32;;;;;;;6.85;5.38;;;;;;;-143.21;50.05;71251.31;5109286;28;20669;-78
2023/06/19 09:54:02;;;;;;;10.27;4.88;;;;;;;-143.21;50.47;71241.41;5109246;28;20203;-79
2023/06/19 09:56:29;;;;;;;10.27;4.40;;;;;;;-143.21;51.07;71241.41;5109285;28;20295;-79
2023/06/19 09:59:00;;;;;;;7.55;4.75;;;;;;;-143.21;50.68;71229.50;5109758;28;20272;-79
2023/06/19 10:01:28;;;;;;;11.63;4.53;;;;;;;-143.21;50.36;71197.78;5109584;28;20290;-80
2023/06/19 10:04:07;;;;;;;6.10;4.97;;;;;;;-143.21;50.91;71189.84;5109698;28;20559;-78
2023/06/19 10:06:45;;;;;;;8.38;5.45;;;;;;;-143.21;49.59;71179.94;5105922;28;20195;-79
2023/06/19 10:09:12;;;;;;;5.25;4.65;;;;;;;-143.21;49.15;71177.97;5106789;28;20718;-79
2023/06/19 10:11:50;;;;;;;9.68;4.65;;;;;;;-143.21;50.08;71162.09;5108497;28;20200;-79
2023/06/19 10:14:18;;;;;;;7.68;4.78;;;;;;;-143.21;50.12;71144.25;5108502;28;20292;-78
2023/06/19 10:16:45;;;;;;;8.75;4.78;;;;;;;-143.21;46.42;71134.34;5105540;28;20220;-79
2023/06/19 10:19:15;;;;;;;6.80;4.38;;;;;;;-143.21;47.03;71130.38;5107356;28;20203;-79
2023/06/19 10:21:46;;;;;;;7.32;5.00;;;;;;;-143.21;47.96;71128.41;5107524;28;20192;-78
2023/06/19 10:24:15;;;;;;;5.68;4.45;;;;;;;-143.21;47.00;71114.53;5108530;28;20223;-79
2023/06/19 10:26:42;;;;;;;7.32;4.50;;;;;;;-143.21;45.85;71118.50;5108461;28;20300;-79
2023/06/19 10:29:16;;;;;;;4.35;3.88;;;;;;;-143.21;45.69;71112.53;5108339;28;20203;-79
2023/06/19 10:31:44;;;;;;;5.47;4.50;;;;;;;-143.21;46.81;71098.66;5107394;28;20203;-79
2023/06/19 10:34:11;;;;;;;5.88;4.10;;;;;;;-143.21;46.47;71072.88;5107009;28;20200;-78
2023/06/19 10:36:40;;;;;;;9.82;4.65;;;;;;;-143.21;47.01;71057.03;5107506;28;20199;-78
2023/06/19 10:39:07;;;;;;;9.15;4.93;;;;;;;-143.21;47.13;71039.19;5107744;28;20208;-78
2023/06/19 10:41:34;;;;;;;7.22;5.00;;;;;;;-143.21;46.01;71019.38;5109199;28;20208;-78
2023/06/19 10:44:05;;;;;;;6.75;4.40;;;;;;;-143.21;45.79;70997.56;5110071;28;20211;-77
2023/06/19 10:46:34;;;;;;;10.38;4.35;;;;;;;-143.21;46.19;70973.78;5109949;28;20662;-80
2023/06/19 10:49:04;;;;;;;7.45;4.97;;;;;;;-143.21;46.02;70951.97;5106554;28;20200;-78
2023/06/19 10:51:31;;;;;;;5.90;4.90;;;;;;;-143.21;45.32;70946.03;5110350;28;20359;-77
2023/06/19 10:54:02;;;;;;;8.10;5.30;;;;;;;-143.21;45.77;70928.19;5110568;28;20199;-78
2023/06/19 10:56:33;;;;;;;5.68;4.78;;;;;;;-143.21;46.77;70922.22;5110575;28;20196;-79
2023/06/19 10:59:01;;;;;;;8.18;4.90;;;;;;;-143.21;46.19;70912.31;5109855;28;20192;-79
2023/06/19 11:01:38;;;;;;;5.70;4.68;;;;;;;-143.21;46.13;70908.34;5106754;28;21252;-78
2023/06/19 11:04:10;;;;;;;6.97;4.82;;;;;;;-143.21;46.57;70892.50;5109542;28;20192;-79
2023/06/19 11:06:42;;;;;;;8.50;5.20;;;;;;;-143.21;45.32;70896.47;5106330;28;20208;-78
2023/06/19 11:09:12;;;;;;;5.15;4.38;;;;;;;-143.21;46.08;70924.22;5109367;28;20208;-78
2023/06/19 11:11:40;;;;;;;5.50;4.63;;;;;;;-143.21;45.91;70936.09;5109533;28;20296;-77
2023/06/19 11:14:08;;;;;;;7.18;4.57;;;;;;;-143.21;46.06;70930.16;5109295;28;20211;-77
2023/06/19 11:16:35;;;;;;;12.27;5.05;;;;;;;-143.21;46.40;70914.31;5105732;28;20208;-78
2023/06/19 11:19:03;;;;;;;7.82;5.15;;;;;;;-143.21;46.35;70910.34;5105808;28;20215;-79
2023/06/19 11:21:38;;;;;;;6.53;4.70;;;;;;;-143.21;46.69;70892.50;5109333;28;20726;-78